Disclaimer

Please do not use the information listed here in-flight or in-navigation, as they are not provided to us by the airports but are provided by volunteers, so they might be outdated.

Search


Regions


Airport information page

Radio informations:
TULCEA TWR - 120.3 MHz
TULCEA APP - 120.3 MHz

Airport informations:
Latitude: 45° 03' 44.95" N
Longitude: 028° 42' 51.52" E
Elevation: 200 feet - 61 meters
Operating hours: Remarks
Operating agency: Civil government, landing fees and diplomatic clearance may be required
Timezone: UTC+2(+3DT)
Fuel: N/A

Runway information:
16/34 - 6517 x 98 feet< - >1986 x 30 meters

Recent METARs:
LRTC 202200Z AUTO 36008KT 5000 BR FEW006/// BKN014/// BKN020/// 02/00 Q1023
LRTC 202230Z AUTO 36008KT 5000 BR FEW007/// BKN014/// 02/01 Q1023
LRTC 202300Z AUTO 36010KT 6000 FEW008/// BKN011/// 02/00 Q1022

Airport on the map: